Time;durP1;ratioP1;P1;durP2;ratioP2;P2;SDS_P1;SDS_P2;PMS_P1;PMS_P2;Temp;Humidity;BMP_temperature;BMP_pressure;BME280_temperature;BME280_humidity;BME280_pressure;Samples;Min_cycle;Max_cycle;Signal;HPM_P1;HPM_P2
2021/05/03 00:00:56;;;;;;;15.48;3.45;;;15.80;60.70;;;;;;5038640;28;20033;-76
2021/05/03 00:03:22;;;;;;;14.00;3.35;;;15.80;61.10;;;;;;5026852;28;20518;-77
2021/05/03 00:05:56;;;;;;;8.77;2.78;;;15.80;61.10;;;;;;5013334;28;20121;-71
2021/05/03 00:08:24;;;;;;;13.93;3.22;;;15.80;61.10;;;;;;4998276;28;20109;-68
2021/05/03 00:10:51;;;;;;;15.38;4.32;;;15.80;60.80;;;;;;4995289;28;20040;-72
2021/05/03 00:13:18;;;;;;;12.57;3.45;;;15.80;60.80;;;;;;5012415;28;20458;-66
2021/05/03 00:15:43;;;;;;;13.05;3.30;;;15.80;60.90;;;;;;5013000;28;20023;-66
2021/05/03 00:18:09;;;;;;;12.82;3.45;;;15.90;61.10;;;;;;5019295;28;20026;-66
2021/05/03 00:20:35;;;;;;;12.85;3.97;;;15.90;61.00;;;;;;5035021;28;20097;-65
2021/05/03 00:23:01;;;;;;;13.82;3.13;;;15.90;61.00;;;;;;5015196;28;20173;-66
2021/05/03 00:25:27;;;;;;;12.48;3.28;;;15.80;60.90;;;;;;5016422;28;20113;-66
2021/05/03 00:27:55;;;;;;;11.93;3.17;;;15.80;60.90;;;;;;5014727;28;20022;-66
2021/05/03 00:30:21;;;;;;;11.15;3.38;;;15.80;61.00;;;;;;4996721;28;20042;-64
2021/05/03 00:32:47;;;;;;;13.70;3.38;;;15.80;61.10;;;;;;4996774;28;20029;-66
2021/05/03 00:35:15;;;;;;;12.77;3.63;;;15.70;61.10;;;;;;4999134;28;20479;-69
2021/05/03 00:37:41;;;;;;;13.93;3.15;;;15.70;61.30;;;;;;5016436;28;20030;-70
2021/05/03 00:40:08;;;;;;;17.13;3.72;;;15.70;61.20;;;;;;4998855;28;20152;-67
2021/05/03 00:42:34;;;;;;;11.75;3.67;;;15.70;61.30;;;;;;4996787;28;20018;-66
2021/05/03 00:45:08;;;;;;;14.05;3.85;;;15.70;61.40;;;;;;4996440;28;20089;-68
2021/05/03 00:47:36;;;;;;;11.60;3.30;;;15.70;61.20;;;;;;4996437;28;20037;-68
2021/05/03 00:50:08;;;;;;;14.77;3.90;;;15.70;60.90;;;;;;5009823;28;20038;-67
2021/05/03 00:52:35;;;;;;;14.13;3.40;;;15.70;61.10;;;;;;5015868;28;20041;-66
2021/05/03 00:55:02;;;;;;;11.73;3.00;;;15.70;61.10;;;;;;5016052;28;20468;-71
2021/05/03 00:57:27;;;;;;;9.63;3.00;;;15.70;61.00;;;;;;5016060;28;20026;-65
2021/05/03 00:59:53;;;;;;;10.88;3.10;;;15.60;61.00;;;;;;5005905;28;20129;-65
2021/05/03 01:02:20;;;;;;;14.00;3.70;;;15.70;61.10;;;;;;5009359;28;20057;-68
2021/05/03 01:04:46;;;;;;;13.52;3.08;;;15.70;61.00;;;;;;5014671;28;20399;-67
2021/05/03 01:07:13;;;;;;;10.25;2.80;;;15.60;61.10;;;;;;5016137;28;20045;-67
2021/05/03 01:09:40;;;;;;;12.95;3.38;;;15.60;61.20;;;;;;5009212;28;20050;-68
2021/05/03 01:12:07;;;;;;;12.40;2.90;;;15.60;61.20;;;;;;4993926;28;20173;-74
2021/05/03 01:14:33;;;;;;;11.98;2.92;;;15.60;61.40;;;;;;4995974;28;20030;-66
2021/05/03 01:16:59;;;;;;;11.25;3.08;;;15.50;61.20;;;;;;4996208;28;20050;-70
2021/05/03 01:19:24;;;;;;;9.75;2.95;;;15.50;61.60;;;;;;4994535;28;20042;-71
2021/05/03 01:21:51;;;;;;;13.57;3.47;;;15.50;61.40;;;;;;5017753;28;20087;-67
2021/05/03 01:24:18;;;;;;;14.27;3.72;;;15.40;61.30;;;;;;5035189;28;20436;-65
2021/05/03 01:26:45;;;;;;;15.35;3.30;;;15.40;61.60;;;;;;5035121;28;20071;-66
2021/05/03 01:29:12;;;;;;;13.75;3.10;;;15.30;61.60;;;;;;5016109;28;20437;-69
2021/05/03 01:31:39;;;;;;;8.77;2.80;;;15.30;61.40;;;;;;5016339;28;20173;-66
2021/05/03 01:34:08;;;;;;;14.60;4.43;;;15.30;61.90;;;;;;5017704;28;20025;-65
2021/05/03 01:36:41;;;;;;;11.20;3.30;;;15.30;61.70;;;;;;5017355;28;20500;-66
2021/05/03 01:39:08;;;;;;;13.25;3.40;;;15.30;61.90;;;;;;5017819;28;20025;-75
2021/05/03 01:41:35;;;;;;;8.57;2.75;;;15.30;61.70;;;;;;5016225;28;20486;-80
2021/05/03 01:44:03;;;;;;;12.38;3.38;;;15.30;62.00;;;;;;5015953;28;20490;-78
2021/05/03 01:46:31;;;;;;;13.57;3.65;;;15.30;62.00;;;;;;5032498;28;20068;-82
2021/05/03 01:48:59;;;;;;;11.88;3.03;;;15.30;61.80;;;;;;4999540;28;20042;-81
2021/05/03 01:51:27;;;;;;;14.13;3.83;;;15.30;61.70;;;;;;5030618;28;20037;-81
2021/05/03 01:53:52;;;;;;;14.65;3.70;;;15.30;61.90;;;;;;5000754;28;20429;-68
2021/05/03 01:56:18;;;;;;;15.75;3.65;;;15.30;62.20;;;;;;5034623;28;20120;-66
2021/05/03 01:58:44;;;;;;;15.40;3.28;;;15.30;62.20;;;;;;5034483;28;20380;-66
2021/05/03 02:01:10;;;;;;;16.33;3.92;;;15.30;62.00;;;;;;5032572;28;20029;-70
2021/05/03 02:03:35;;;;;;;11.90;3.40;;;15.30;62.00;;;;;;5034364;28;20033;-67
2021/05/03 02:06:02;;;;;;;12.80;3.60;;;15.40;61.90;;;;;;5034450;28;20420;-67
2021/05/03 02:08:28;;;;;;;13.75;3.45;;;15.40;61.90;;;;;;5034221;28;20071;-66
2021/05/03 02:10:54;;;;;;;20.00;3.80;;;15.40;61.90;;;;;;5029381;28;20024;-67
2021/05/03 02:13:22;;;;;;;12.48;3.38;;;15.40;61.90;;;;;;5014557;28;20057;-68
2021/05/03 02:15:49;;;;;;;15.02;3.83;;;15.40;62.00;;;;;;5014524;28;20104;-65
2021/05/03 02:18:16;;;;;;;15.60;3.92;;;15.40;61.90;;;;;;4997194;28;20125;-66
2021/05/03 02:20:43;;;;;;;15.30;3.20;;;15.40;61.90;;;;;;5014248;28;20045;-67
2021/05/03 02:23:10;;;;;;;14.90;3.63;;;15.40;62.50;;;;;;5033723;28;20103;-66
2021/05/03 02:25:35;;;;;;;15.18;3.55;;;15.40;61.50;;;;;;5033827;28;20423;-65
2021/05/03 02:28:01;;;;;;;15.43;4.05;;;15.50;61.80;;;;;;5033935;28;20018;-65
2021/05/03 02:30:27;;;;;;;15.05;3.70;;;15.40;62.00;;;;;;5016247;28;20034;-65
2021/05/03 02:32:53;;;;;;;16.00;3.35;;;15.40;62.00;;;;;;5028971;28;20079;-66
2021/05/03 02:35:21;;;;;;;12.88;3.08;;;15.40;61.90;;;;;;5033903;28;20113;-66
2021/05/03 02:37:55;;;;;;;13.18;3.42;;;15.40;62.00;;;;;;4999652;28;20465;-65
2021/05/03 02:40:23;;;;;;;15.30;3.22;;;15.40;61.70;;;;;;5033796;28;20025;-66
2021/05/03 02:42:54;;;;;;;14.00;3.45;;;15.30;61.70;;;;;;5021667;28;20026;-68
2021/05/03 02:45:20;;;;;;;16.30;3.55;;;15.30;61.70;;;;;;5013878;28;20030;-66
2021/05/03 02:47:46;;;;;;;12.75;3.15;;;15.30;61.80;;;;;;5013931;28;20104;-66
2021/05/03 02:50:13;;;;;;;10.57;3.58;;;15.20;61.70;;;;;;5013782;28;20030;-66
2021/05/03 02:52:40;;;;;;;15.35;2.90;;;15.20;61.90;;;;;;5021164;28;20048;-66
2021/05/03 02:55:08;;;;;;;19.20;4.38;;;15.20;62.10;;;;;;5033503;28;20025;-67
2021/05/03 02:57:34;;;;;;;10.68;3.40;;;15.10;62.50;;;;;;5023055;28;20034;-69
2021/05/03 02:59:59;;;;;;;13.60;3.42;;;15.10;62.40;;;;;;5013656;28;20100;-65
2021/05/03 03:02:25;;;;;;;10.23;3.30;;;15.10;62.80;;;;;;5016950;28;20443;-66
2021/05/03 03:04:51;;;;;;;13.15;4.40;;;15.10;62.70;;;;;;5033774;28;20034;-69
2021/05/03 03:07:16;;;;;;;12.43;3.80;;;15.10;62.80;;;;;;5033323;28;20028;-65
2021/05/03 03:09:42;;;;;;;15.88;3.83;;;15.10;62.60;;;;;;5033207;28;20033;-65
2021/05/03 03:12:10;;;;;;;11.90;3.78;;;15.10;62.80;;;;;;5033119;28;20022;-65
2021/05/03 03:14:36;;;;;;;12.52;3.85;;;15.10;62.50;;;;;;5032859;28;20029;-67
2021/05/03 03:17:03;;;;;;;12.20;4.10;;;15.10;62.60;;;;;;5033069;28;20029;-67
2021/05/03 03:19:29;;;;;;;18.65;3.35;;;15.10;62.50;;;;;;5033255;28;20087;-66
2021/05/03 03:21:54;;;;;;;10.98;3.72;;;15.10;62.70;;;;;;5032966;28;20129;-67
2021/05/03 03:24:20;;;;;;;9.60;3.10;;;15.00;62.90;;;;;;5019793;28;20045;-68
2021/05/03 03:26:46;;;;;;;12.27;3.05;;;15.00;62.80;;;;;;5013219;28;20467;-65
2021/05/03 03:29:11;;;;;;;15.10;3.78;;;15.10;62.80;;;;;;5013085;28;20065;-66
2021/05/03 03:31:37;;;;;;;13.57;3.65;;;15.00;62.80;;;;;;5013258;28;20026;-66
2021/05/03 03:34:03;;;;;;;10.90;3.28;;;15.10;63.00;;;;;;5003066;28;20470;-66
2021/05/03 03:36:29;;;;;;;12.68;3.40;;;15.00;63.00;;;;;;5033087;28;20017;-69
2021/05/03 03:38:54;;;;;;;9.88;2.90;;;15.10;63.10;;;;;;5032848;28;20029;-69
2021/05/03 03:41:20;;;;;;;10.07;2.97;;;15.10;63.10;;;;;;5032541;28;20375;-65
2021/05/03 03:43:46;;;;;;;9.93;2.95;;;14.90;62.80;;;;;;5029945;28;20030;-65
2021/05/03 03:46:11;;;;;;;13.07;4.18;;;15.00;63.10;;;;;;5012912;28;20375;-65
2021/05/03 03:48:37;;;;;;;14.32;2.92;;;15.00;63.00;;;;;;5012814;28;20042;-65
2021/05/03 03:51:03;;;;;;;12.82;3.50;;;15.00;63.00;;;;;;5015133;28;20038;-66
2021/05/03 03:53:28;;;;;;;9.95;3.50;;;14.90;63.10;;;;;;5032647;28;20032;-67
2021/05/03 03:55:54;;;;;;;12.88;4.20;;;14.90;63.00;;;;;;5018138;28;20041;-67
2021/05/03 03:58:20;;;;;;;9.18;3.03;;;14.90;62.90;;;;;;5016971;28;20032;-65
2021/05/03 04:00:46;;;;;;;19.40;3.72;;;14.90;63.10;;;;;;5016889;28;20092;-69
2021/05/03 04:03:11;;;;;;;12.23;3.05;;;14.90;63.20;;;;;;5016694;28;20026;-66
2021/05/03 04:06:00;;;;;;;8.02;2.97;;;14.90;63.30;;;;;;5028725;28;20114;-68
2021/05/03 04:11:49;;;;;;;16.23;3.55;;;14.90;63.10;;;;;;5036698;28;20041;-65
2021/05/03 04:14:16;;;;;;;13.52;3.88;;;14.90;63.00;;;;;;5035327;28;20104;-65
2021/05/03 04:25:32;;;;;;;14.50;3.60;;;15.00;63.60;;;;;;5036609;28;19917;-66
2021/05/03 04:27:29;;;;;;;12.88;3.80;;;15.00;63.20;;;;;;5008921;28;20070;-65
2021/05/03 04:29:54;;;;;;;15.50;4.05;;;15.00;63.10;;;;;;5016370;28;20054;-67
2021/05/03 04:32:20;;;;;;;14.85;3.45;;;15.00;63.30;;;;;;5016206;28;20510;-69
2021/05/03 04:34:46;;;;;;;12.35;3.85;;;15.00;62.90;;;;;;5016204;28;20037;-66
2021/05/03 04:37:11;;;;;;;16.90;4.18;;;15.00;63.00;;;;;;5032402;28;20021;-67
2021/05/03 04:39:37;;;;;;;13.73;4.10;;;14.80;63.30;;;;;;5035991;28;20038;-73
2021/05/03 04:42:03;;;;;;;15.38;4.65;;;14.80;63.30;;;;;;5035970;28;20093;-65
2021/05/03 04:44:28;;;;;;;14.35;4.15;;;14.90;63.70;;;;;;5035658;28;20470;-66
2021/05/03 04:46:55;;;;;;;12.77;4.50;;;14.90;63.60;;;;;;5035200;28;20066;-66
2021/05/03 04:49:21;;;;;;;19.42;4.63;;;15.00;63.70;;;;;;5035738;28;20028;-73
2021/05/03 04:51:48;;;;;;;13.48;3.92;;;15.00;63.30;;;;;;5035709;28;20026;-66
2021/05/03 04:54:14;;;;;;;14.82;4.60;;;15.00;64.10;;;;;;5036301;28;20029;-65
2021/05/03 04:56:41;;;;;;;15.32;4.93;;;15.10;63.40;;;;;;5028884;28;20395;-66
2021/05/03 04:59:07;;;;;;;14.02;4.78;;;15.20;63.40;;;;;;5017018;28;20121;-65
2021/05/03 05:01:32;;;;;;;10.25;4.05;;;15.20;62.90;;;;;;5019318;28;20104;-66
2021/05/03 05:03:58;;;;;;;15.43;4.32;;;15.20;62.80;;;;;;5029249;28;20161;-67
2021/05/03 05:06:24;;;;;;;15.82;4.93;;;15.10;63.10;;;;;;5015949;28;20120;-66
2021/05/03 05:08:49;;;;;;;13.63;3.78;;;15.10;63.00;;;;;;5035516;28;20046;-66
2021/05/03 05:11:16;;;;;;;16.98;4.35;;;15.30;63.10;;;;;;5035460;28;20025;-68
2021/05/03 05:13:41;;;;;;;18.17;4.43;;;15.30;62.90;;;;;;5035586;28;20017;-67
2021/05/03 05:16:07;;;;;;;15.32;4.70;;;15.50;62.80;;;;;;5035246;28;20044;-66
2021/05/03 05:18:34;;;;;;;11.65;3.95;;;15.50;62.50;;;;;;5018158;28;20030;-66
2021/05/03 05:21:00;;;;;;;18.10;5.45;;;15.50;62.40;;;;;;5016973;28;20097;-66
2021/05/03 05:23:25;;;;;;;17.25;5.07;;;15.50;62.40;;;;;;5034820;28;20336;-65
2021/05/03 05:25:51;;;;;;;11.85;4.75;;;15.50;62.70;;;;;;5034926;28;20030;-66
2021/05/03 05:28:17;;;;;;;9.32;4.22;;;15.60;62.60;;;;;;5034249;28;20478;-66
2021/05/03 05:30:43;;;;;;;12.30;4.15;;;15.60;62.20;;;;;;5034760;28;20030;-66
2021/05/03 05:33:08;;;;;;;14.93;5.10;;;15.60;62.10;;;;;;5034011;28;20115;-66
2021/05/03 05:35:34;;;;;;;17.63;5.75;;;15.60;62.30;;;;;;5034845;28;20474;-67
2021/05/03 05:38:00;;;;;;;16.13;4.90;;;15.70;62.10;;;;;;5034043;28;20382;-67
2021/05/03 05:40:25;;;;;;;17.02;4.95;;;15.80;61.90;;;;;;5031710;28;20038;-67
2021/05/03 05:42:51;;;;;;;22.52;5.68;;;15.90;61.50;;;;;;4998132;28;20038;-68
2021/05/03 05:45:17;;;;;;;17.50;6.22;;;15.80;61.50;;;;;;5014732;28;20125;-68
2021/05/03 05:47:43;;;;;;;14.05;5.30;;;15.80;61.60;;;;;;5024586;28;20422;-66
2021/05/03 05:50:09;;;;;;;13.82;5.40;;;15.90;61.70;;;;;;5034361;28;20021;-66
2021/05/03 05:52:35;;;;;;;18.27;6.07;;;16.00;61.70;;;;;;5030964;28;20030;-65
2021/05/03 05:55:00;;;;;;;21.27;5.72;;;16.10;61.20;;;;;;5014477;28;20084;-66
2021/05/03 05:57:26;;;;;;;17.05;6.15;;;16.10;61.00;;;;;;5016719;28;20025;-67
2021/05/03 05:59:52;;;;;;;19.00;6.22;;;16.10;61.30;;;;;;5030843;28;20072;-66
2021/05/03 06:02:17;;;;;;;16.42;6.07;;;16.10;61.00;;;;;;5033976;28;20041;-70
2021/05/03 06:04:43;;;;;;;16.38;6.68;;;16.20;61.00;;;;;;5014163;28;20473;-70
2021/05/03 06:07:09;;;;;;;19.08;5.85;;;16.20;60.90;;;;;;5034408;28;20057;-70
2021/05/03 06:09:34;;;;;;;16.15;6.07;;;16.20;60.80;;;;;;5033868;28;20021;-70
2021/05/03 06:12:00;;;;;;;19.70;7.10;;;16.20;60.80;;;;;;5033505;28;20079;-70
2021/05/03 06:14:26;;;;;;;15.35;5.40;;;16.30;60.90;;;;;;5033337;28;20033;-68
2021/05/03 06:16:51;;;;;;;12.77;5.72;;;16.40;60.50;;;;;;5033746;28;20132;-70
2021/05/03 06:19:17;;;;;;;21.02;5.75;;;16.40;60.40;;;;;;5033674;28;20049;-70
2021/05/03 06:21:43;;;;;;;25.38;6.78;;;16.50;60.10;;;;;;5033761;28;20037;-71
2021/05/03 06:24:09;;;;;;;21.52;6.05;;;16.50;60.00;;;;;;5032696;28;20038;-69
2021/05/03 06:26:34;;;;;;;16.35;5.63;;;16.50;60.50;;;;;;5033325;28;20037;-71
2021/05/03 06:29:00;;;;;;;15.60;5.70;;;16.50;60.10;;;;;;5033222;28;20132;-71
2021/05/03 06:31:26;;;;;;;14.52;5.38;;;16.50;59.90;;;;;;5033242;28;20022;-71
2021/05/03 06:33:51;;;;;;;12.10;6.03;;;16.50;59.60;;;;;;5015532;28;20029;-71
2021/05/03 06:36:17;;;;;;;16.73;5.57;;;16.60;59.70;;;;;;5033310;28;20017;-74
2021/05/03 06:38:43;;;;;;;11.57;5.18;;;16.60;59.50;;;;;;5033746;28;20033;-73
2021/05/03 06:41:08;;;;;;;19.80;5.55;;;16.70;59.30;;;;;;5030583;28;20030;-75
2021/05/03 06:43:34;;;;;;;21.05;5.40;;;16.80;59.40;;;;;;5031272;28;20061;-74
2021/05/03 06:46:00;;;;;;;15.10;5.85;;;16.90;59.00;;;;;;5032127;28;20113;-74
2021/05/03 06:48:26;;;;;;;16.92;5.85;;;16.90;59.20;;;;;;5032726;28;20032;-74
2021/05/03 06:50:51;;;;;;;15.65;5.72;;;17.00;59.70;;;;;;5031227;28;20494;-76
2021/05/03 06:53:17;;;;;;;17.17;5.95;;;17.00;58.90;;;;;;5014237;28;20030;-75
2021/05/03 06:55:46;;;;;;;14.73;5.32;;;17.10;59.00;;;;;;5025729;28;20457;-74
2021/05/03 06:58:12;;;;;;;15.75;5.60;;;17.30;58.70;;;;;;5032925;28;20055;-73
2021/05/03 07:00:40;;;;;;;16.60;5.78;;;17.50;58.60;;;;;;5032729;28;20032;-75
2021/05/03 07:03:09;;;;;;;17.80;5.90;;;17.70;58.30;;;;;;5015057;28;20037;-72
2021/05/03 07:05:36;;;;;;;16.45;5.88;;;17.90;58.20;;;;;;5031824;28;20494;-73
2021/05/03 07:08:02;;;;;;;17.98;5.35;;;18.00;57.90;;;;;;5002611;28;20033;-73
2021/05/03 07:10:28;;;;;;;12.02;4.57;;;18.20;57.70;;;;;;5012901;28;20506;-73
2021/05/03 07:12:54;;;;;;;16.25;5.25;;;18.30;57.70;;;;;;5013019;28;20372;-73
2021/05/03 07:15:20;;;;;;;15.63;5.63;;;18.50;57.80;;;;;;5016596;28;20033;-75
2021/05/03 07:17:46;;;;;;;12.02;5.20;;;18.70;57.70;;;;;;5031796;28;20068;-72
2021/05/03 07:20:12;;;;;;;17.10;5.28;;;18.80;57.60;;;;;;5032548;28;20037;-72
2021/05/03 07:22:38;;;;;;;29.42;12.57;;;18.90;57.80;;;;;;5031538;28;20041;-73
2021/05/03 07:25:07;;;;;;;16.67;6.03;;;19.00;57.80;;;;;;5010897;28;20083;-74
2021/05/03 07:27:34;;;;;;;18.98;5.72;;;19.00;57.70;;;;;;5031120;28;20038;-72
2021/05/03 07:30:01;;;;;;;22.73;4.82;;;19.00;57.70;;;;;;5012678;28;20097;-75
2021/05/03 07:32:27;;;;;;;16.58;4.97;;;19.10;58.10;;;;;;5014513;28;20032;-72
2021/05/03 07:34:52;;;;;;;14.27;4.60;;;19.20;58.20;;;;;;5028683;28;20029;-74
2021/05/03 07:37:18;;;;;;;16.20;5.30;;;19.30;58.00;;;;;;5012257;28;20026;-74
2021/05/03 07:39:44;;;;;;;12.43;4.50;;;19.50;58.10;;;;;;5012137;28;20077;-76
2021/05/03 07:42:10;;;;;;;21.27;5.00;;;19.60;58.00;;;;;;5028710;28;20382;-74
2021/05/03 07:44:37;;;;;;;15.05;3.97;;;19.60;57.90;;;;;;5012065;28;20034;-75
2021/05/03 07:47:03;;;;;;;14.70;3.28;;;19.60;57.70;;;;;;5014786;28;20533;-76
2021/05/03 07:49:29;;;;;;;15.93;3.90;;;19.70;57.50;;;;;;5012323;28;20029;-76
2021/05/03 07:51:55;;;;;;;15.30;3.10;;;19.70;57.40;;;;;;5030711;28;20130;-76
2021/05/03 07:54:20;;;;;;;13.73;3.42;;;19.80;57.20;;;;;;5032233;28;20427;-76
2021/05/03 07:56:46;;;;;;;13.93;3.95;;;19.80;56.50;;;;;;5014564;28;20112;-77
2021/05/03 07:59:12;;;;;;;11.68;3.10;;;19.80;56.40;;;;;;5014079;28;20057;-78
2021/05/03 08:01:38;;;;;;;12.77;3.10;;;19.90;56.30;;;;;;5032498;28;20065;-79
2021/05/03 08:04:05;;;;;;;14.85;3.42;;;19.90;56.30;;;;;;5002803;28;20022;-76
2021/05/03 08:06:31;;;;;;;14.40;3.30;;;20.00;56.50;;;;;;5012361;28;20088;-77
2021/05/03 08:09:04;;;;;;;9.88;3.08;;;20.00;56.10;;;;;;5022365;28;20052;-74
2021/05/03 08:11:29;;;;;;;13.55;3.83;;;19.90;56.00;;;;;;5012633;28;20034;-73
2021/05/03 08:13:55;;;;;;;14.18;3.88;;;19.90;56.10;;;;;;5012293;28;20029;-71
2021/05/03 08:16:22;;;;;;;23.05;4.10;;;19.80;56.30;;;;;;5012039;28;20351;-72
2021/05/03 08:18:48;;;;;;;17.40;3.63;;;19.80;56.50;;;;;;5012255;28;20042;-78
2021/05/03 08:21:14;;;;;;;10.77;3.47;;;19.70;56.80;;;;;;5025179;28;20340;-73
2021/05/03 08:23:40;;;;;;;16.48;3.50;;;19.70;56.70;;;;;;5031691;28;20444;-72
2021/05/03 08:26:07;;;;;;;11.05;3.05;;;19.80;56.70;;;;;;5031985;28;20056;-75
2021/05/03 08:28:32;;;;;;;14.85;3.53;;;19.80;56.90;;;;;;5013675;28;20083;-76
2021/05/03 08:30:58;;;;;;;14.93;3.45;;;19.90;56.60;;;;;;5013362;28;20444;-74
2021/05/03 08:33:24;;;;;;;13.75;3.42;;;20.00;56.30;;;;;;5031672;28;20022;-75
2021/05/03 08:35:51;;;;;;;9.60;3.00;;;20.00;56.10;;;;;;5031585;28;20033;-73
2021/05/03 08:38:18;;;;;;;11.98;2.95;;;20.10;56.30;;;;;;5030695;28;20104;-74
2021/05/03 08:40:46;;;;;;;11.10;3.25;;;20.30;56.30;;;;;;5013334;28;20471;-75
2021/05/03 08:43:12;;;;;;;17.58;4.38;;;20.50;55.80;;;;;;5034555;28;20087;-75
2021/05/03 08:45:39;;;;;;;21.02;3.65;;;20.60;55.40;;;;;;5035057;28;20113;-77
2021/05/03 08:53:20;;;;;;;12.10;2.90;;;20.60;54.80;;;;;;5034796;28;20033;-74
2021/05/03 08:55:45;;;;;;;11.00;3.22;;;20.50;54.00;;;;;;5035256;28;20508;-73
2021/05/03 08:58:12;;;;;;;19.63;3.58;;;20.50;54.60;;;;;;5034533;28;20018;-72
2021/05/03 09:00:38;;;;;;;9.80;2.60;;;20.60;54.60;;;;;;5034488;28;20030;-73
2021/05/03 09:03:11;;;;;;;17.85;3.47;;;20.60;54.10;;;;;;5027479;28;20079;-74
2021/05/03 09:05:37;;;;;;;15.07;3.15;;;20.70;54.10;;;;;;5034385;28;20049;-76
2021/05/03 09:08:04;;;;;;;10.55;3.30;;;20.80;53.80;;;;;;5016896;28;20116;-77
2021/05/03 09:10:31;;;;;;;17.60;3.60;;;20.90;53.70;;;;;;5034612;28;20203;-81
2021/05/03 09:13:11;;;;;;;12.90;3.20;;;21.00;53.50;;;;;;5011369;28;20113;-82
2021/05/03 09:15:38;;;;;;;12.93;3.47;;;21.00;53.30;;;;;;5014921;28;20068;-72
2021/05/03 09:18:04;;;;;;;14.07;3.45;;;21.10;52.60;;;;;;5014794;28;20036;-77
2021/05/03 09:20:30;;;;;;;10.02;3.20;;;21.10;52.80;;;;;;5014816;28;20030;-75
2021/05/03 09:23:02;;;;;;;9.25;2.55;;;21.10;53.20;;;;;;5017082;28;20049;-76
2021/05/03 09:25:34;;;;;;;13.23;3.75;;;21.10;53.00;;;;;;5034660;28;20483;-77
2021/05/03 09:28:07;;;;;;;18.70;4.03;;;21.10;52.70;;;;;;5016530;28;20117;-76
2021/05/03 09:30:34;;;;;;;14.80;4.40;;;21.10;52.40;;;;;;5033668;28;20079;-78
2021/05/03 09:33:14;;;;;;;8.85;3.70;;;21.10;52.60;;;;;;5033413;28;20467;-76
2021/05/03 09:36:01;;;;;;;13.38;3.42;;;21.10;52.80;;;;;;5014267;28;20095;-76
2021/05/03 09:38:33;;;;;;;12.88;2.97;;;21.10;52.40;;;;;;5030541;28;20034;-76
2021/05/03 09:41:24;;;;;;;14.73;3.20;;;21.10;51.70;;;;;;5033753;28;20033;-75
2021/05/03 09:43:53;;;;;;;14.52;3.20;;;21.10;51.10;;;;;;5033618;28;20045;-73
2021/05/03 09:46:36;;;;;;;11.45;2.83;;;21.10;51.80;;;;;;5033692;28;20034;-76
2021/05/03 09:49:06;;;;;;;18.52;3.38;;;21.10;51.80;;;;;;5031520;28;20104;-76
2021/05/03 09:51:34;;;;;;;9.38;3.35;;;21.20;51.80;;;;;;5033556;28;20026;-76
2021/05/03 09:54:28;;;;;;;9.45;2.67;;;21.20;52.10;;;;;;5033304;28;20025;-74
2021/05/03 09:57:05;;;;;;;11.93;3.00;;;21.30;51.70;;;;;;5033072;28;20104;-73
2021/05/03 09:59:33;;;;;;;11.50;2.97;;;21.40;51.50;;;;;;5028043;28;20038;-74
2021/05/03 10:02:50;;;;;;;14.35;3.03;;;21.40;52.20;;;;;;5033555;28;20025;-74
2021/05/03 10:07:41;;;;;;;12.30;3.35;;;21.60;50.50;;;;;;5033305;28;20036;-74
2021/05/03 10:12:36;;;;;;;8.10;2.17;;;21.60;50.60;;;;;;5032798;28;20140;-72
2021/05/03 10:15:07;;;;;;;12.73;2.78;;;21.70;50.60;;;;;;5033619;28;20499;-72
2021/05/03 10:17:35;;;;;;;16.08;2.67;;;21.80;50.10;;;;;;5014001;28;20026;-72
2021/05/03 10:20:02;;;;;;;12.75;3.22;;;21.90;50.30;;;;;;5020872;28;20104;-69
2021/05/03 10:22:29;;;;;;;13.95;2.85;;;21.90;50.10;;;;;;5019829;28;20080;-71
2021/05/03 10:24:58;;;;;;;12.23;2.38;;;21.90;50.20;;;;;;5014911;28;20026;-72
2021/05/03 10:27:25;;;;;;;15.70;3.80;;;22.00;50.40;;;;;;5013509;28;20026;-70
2021/05/03 10:30:09;;;;;;;9.77;2.95;;;21.90;50.30;;;;;;5013487;28;20025;-71
2021/05/03 10:32:36;;;;;;;12.52;3.28;;;22.00;50.20;;;;;;4995354;28;20494;-71
2021/05/03 10:35:05;;;;;;;10.50;2.88;;;21.90;50.40;;;;;;5027637;28;20043;-70
2021/05/03 10:37:34;;;;;;;10.70;2.67;;;21.90;50.50;;;;;;5033287;28;20091;-70
2021/05/03 10:40:02;;;;;;;13.77;2.85;;;21.80;50.60;;;;;;5008764;28;20034;-70
2021/05/03 10:42:28;;;;;;;13.15;3.72;;;21.80;50.60;;;;;;5023156;28;20032;-67
2021/05/03 10:45:14;;;;;;;21.00;10.43;;;21.80;50.80;;;;;;5029511;28;20037;-71
2021/05/03 10:47:44;;;;;;;13.05;5.72;;;21.90;50.50;;;;;;5022339;28;20486;-72
2021/05/03 10:50:36;;;;;;;11.80;3.42;;;21.90;50.60;;;;;;5015596;28;20032;-70
2021/05/03 10:53:43;;;;;;;11.00;2.95;;;21.90;50.20;;;;;;5012940;28;20026;-69
2021/05/03 10:56:09;;;;;;;12.20;2.63;;;22.00;50.40;;;;;;5012098;28;20544;-69
2021/05/03 10:59:13;;;;;;;12.77;2.83;;;21.90;50.60;;;;;;5031132;28;20029;-70
2021/05/03 11:01:54;;;;;;;8.77;2.65;;;21.90;50.10;;;;;;4951981;28;20042;-70
2021/05/03 11:04:23;;;;;;;12.43;3.33;;;22.00;50.70;;;;;;5008632;28;20033;-70
2021/05/03 11:06:49;;;;;;;13.27;2.92;;;22.10;50.10;;;;;;5031831;28;20040;-70
2021/05/03 11:09:41;;;;;;;10.48;2.88;;;22.20;50.30;;;;;;5032584;28;20026;-71
2021/05/03 11:12:11;;;;;;;13.45;2.90;;;22.30;50.10;;;;;;5032175;28;20037;-72
2021/05/03 11:14:58;;;;;;;9.27;2.90;;;22.30;50.20;;;;;;5032162;28;20033;-71
2021/05/03 11:17:24;;;;;;;11.50;2.95;;;22.40;50.40;;;;;;5027126;28;20025;-73
2021/05/03 11:22:42;;;;;;;11.77;2.83;;;22.30;49.80;;;;;;5031924;28;20455;-71
2021/05/03 11:25:19;;;;;;;10.65;2.60;;;22.20;50.20;;;;;;5025755;28;20132;-71
2021/05/03 11:27:55;;;;;;;12.85;2.90;;;22.10;50.20;;;;;;5023287;28;20068;-71
2021/05/03 11:33:05;;;;;;;8.88;2.50;;;22.00;50.60;;;;;;5031935;28;20398;-70
2021/05/03 11:38:27;;;;;;;13.00;3.08;;;22.00;50.80;;;;;;5028313;28;20040;-78
2021/05/03 11:46:26;;;;;;;7.03;2.53;;;21.90;49.70;;;;;;5031895;28;20059;-76
2021/05/03 11:48:53;;;;;;;14.07;2.70;;;21.90;50.20;;;;;;5030873;28;20034;-74
2021/05/03 11:51:21;;;;;;;9.07;2.50;;;21.90;49.90;;;;;;5031005;28;20076;-80
2021/05/03 11:53:47;;;;;;;12.23;2.53;;;22.00;49.50;;;;;;5031326;28;20018;-75
2021/05/03 11:56:28;;;;;;;15.02;3.85;;;22.00;49.60;;;;;;5031489;28;20029;-74
2021/05/03 11:58:59;;;;;;;11.68;3.97;;;22.10;49.00;;;;;;5009304;28;20121;-74
2021/05/03 12:01:29;;;;;;;12.55;2.53;;;22.20;49.50;;;;;;5012418;28;20030;-72
2021/05/03 12:03:59;;;;;;;9.18;2.25;;;22.10;49.20;;;;;;5029255;28;20033;-75
2021/05/03 12:06:38;;;;;;;10.43;3.05;;;22.10;48.90;;;;;;5012517;28;20045;-75
2021/05/03 12:09:08;;;;;;;8.05;2.20;;;22.00;48.30;;;;;;5012673;28;20056;-80
2021/05/03 12:11:37;;;;;;;10.63;2.35;;;22.10;48.50;;;;;;5027343;28;20463;-74
2021/05/03 12:14:08;;;;;;;10.68;2.75;;;22.10;48.10;;;;;;5020330;28;20077;-75
2021/05/03 12:16:37;;;;;;;13.02;2.55;;;22.20;48.10;;;;;;5013883;28;20030;-73
2021/05/03 12:19:16;;;;;;;9.35;2.33;;;22.20;47.40;;;;;;5030194;28;20022;-75
2021/05/03 12:21:44;;;;;;;8.93;2.60;;;22.20;46.40;;;;;;5032245;28;20108;-79
2021/05/03 12:24:19;;;;;;;10.27;3.00;;;22.20;45.80;;;;;;5035666;28;20037;-76
2021/05/03 12:26:58;;;;;;;11.30;2.70;;;22.20;46.60;;;;;;5035156;28;20037;-74
2021/05/03 12:29:25;;;;;;;10.60;2.70;;;22.30;46.60;;;;;;5035261;28;20386;-74
2021/05/03 12:31:52;;;;;;;10.20;2.70;;;22.30;46.40;;;;;;5035127;28;20379;-75
2021/05/03 12:34:23;;;;;;;11.75;2.33;;;22.30;46.30;;;;;;5017537;28;20124;-75
2021/05/03 12:37:11;;;;;;;10.45;2.35;;;22.30;46.10;;;;;;5034560;28;20037;-73
2021/05/03 12:39:41;;;;;;;11.38;3.25;;;22.30;44.80;;;;;;5024312;28;20028;-74
2021/05/03 12:42:17;;;;;;;11.57;2.72;;;22.40;45.90;;;;;;5036285;28;20039;-74
2021/05/03 12:44:53;;;;;;;11.00;2.60;;;22.40;45.30;;;;;;5022339;28;20033;-74
2021/05/03 12:52:55;;;;;;;10.48;2.20;;;22.50;44.20;;;;;;5015381;28;20022;-78
2021/05/03 13:01:38;;;;;;;8.82;1.85;;;22.50;43.20;;;;;;5035341;28;20026;-75
2021/05/03 13:07:12;;;;;;;9.73;2.47;;;22.60;44.50;;;;;;5034639;28;20064;-75
2021/05/03 13:29:14;;;;;;;8.45;2.33;;;22.60;43.20;;;;;;5009829;28;20034;-75
2021/05/03 13:31:42;;;;;;;8.52;2.17;;;22.60;42.90;;;;;;5032355;28;20465;-73
2021/05/03 13:34:13;;;;;;;12.82;2.20;;;22.70;44.00;;;;;;5014449;28;20033;-73
2021/05/03 13:36:41;;;;;;;7.22;1.92;;;22.70;43.30;;;;;;5028654;28;20056;-71
2021/05/03 13:39:08;;;;;;;8.20;2.25;;;22.70;42.80;;;;;;5033877;28;20030;-73
2021/05/03 13:41:35;;;;;;;6.25;1.80;;;22.70;43.20;;;;;;5034102;28;20022;-73
2021/05/03 13:44:03;;;;;;;6.60;2.15;;;22.70;43.20;;;;;;5034138;28;20463;-72
2021/05/03 13:46:30;;;;;;;8.43;1.90;;;22.70;43.20;;;;;;5013035;28;20041;-73
2021/05/03 13:48:56;;;;;;;6.47;1.80;;;22.80;43.40;;;;;;5032801;28;20613;-74
2021/05/03 13:51:22;;;;;;;7.35;2.38;;;22.80;43.30;;;;;;5033540;28;20105;-72
2021/05/03 13:53:48;;;;;;;8.95;2.50;;;22.80;43.20;;;;;;5016351;28;20052;-73